Terminal Aerodrome Forecast
Issued by NWS

Home | Current Version | Previous Version | Text Only | Print | Product List | Glossary On
Versions: 1 2 3 4 5 6 7 8 9 10 11 12 13 14 15 16 17 18 19 20 21 22 23 24 25 26 27 28 29
000
FTUS45 KGJT 041130
TAFCNY
TAF
KCNY 041130Z 0412/0512 09005KT P6SM BKN120
     FM041400 16010KT P6SM VCSH BKN100
     FM041700 20008KT P6SM SCT100 BKN200
     FM042300 22012G20KT P6SM VCTS SCT090CB BKN200
     FM050200 30008KT P6SM SCT090 BKN200
     FM050600 14004KT P6SM SCT100 BKN200=

USA.gov is the U.S. government's official web portal to all federal, state and local government web resources and services.